Time;durP1;ratioP1;P1;durP2;ratioP2;P2;SDS_P1;SDS_P2;PMS_P1;PMS_P2;Temp;Humidity;BMP_temperature;BMP_pressure;BME280_temperature;BME280_humidity;BME280_pressure;Samples;Min_cycle;Max_cycle;Signal;HPM_P1;HPM_P2
2022/05/15 00:09:23;;;;;;;0.90;0.53;;;;;;;;;;20790285;28;20227;-68
2022/05/15 00:19:26;;;;;;;1.33;0.60;;;;;;;;;;20848691;28;20637;-69
2022/05/15 00:29:27;;;;;;;1.07;0.60;;;;;;;;;;20889865;28;20265;-69
2022/05/15 00:39:29;;;;;;;3.43;0.67;;;;;;;;;;20899019;28;20227;-68
2022/05/15 00:49:32;;;;;;;1.40;0.80;;;;;;;;;;20850258;28;20211;-68
2022/05/15 00:59:38;;;;;;;1.60;0.70;;;;;;;;;;20850165;28;20588;-69
2022/05/15 01:09:41;;;;;;;1.27;0.80;;;;;;;;;;20914836;28;20733;-68
2022/05/15 01:19:43;;;;;;;0.93;0.50;;;;;;;;;;20864612;28;20274;-68
2022/05/15 01:29:47;;;;;;;2.43;0.83;;;;;;;;;;20862902;28;20290;-68
2022/05/15 01:39:52;;;;;;;3.43;0.70;;;;;;;;;;20893437;28;20229;-68
2022/05/15 01:49:54;;;;;;;2.40;0.73;;;;;;;;;;20861363;28;20300;-69
2022/05/15 01:59:57;;;;;;;2.40;0.77;;;;;;;;;;20861147;28;20279;-68
2022/05/15 02:09:59;;;;;;;2.47;0.97;;;;;;;;;;20844127;28;20209;-68
2022/05/15 02:20:01;;;;;;;1.17;0.70;;;;;;;;;;20843232;28;20444;-68
2022/05/15 02:30:05;;;;;;;2.80;1.13;;;19.90;99.90;;;;;;20892095;28;20204;-68
2022/05/15 02:40:08;;;;;;;1.63;0.77;;;19.40;99.90;;;;;;20833710;28;20212;-69
2022/05/15 03:00:31;;;;;;;1.73;0.80;;;;;;;;;;20777874;28;20297;-68
2022/05/15 03:10:33;;;;;;;2.83;0.80;;;;;;;;;;20774138;28;20243;-68
2022/05/15 03:20:35;;;;;;;1.83;0.80;;;19.10;97.30;;;;;;20806266;28;20300;-68
2022/05/15 03:30:41;;;;;;;2.10;1.00;;;18.80;99.90;;;;;;20757181;28;20270;-68
2022/05/15 03:40:43;;;;;;;4.37;0.90;;;;;;;;;;20787768;28;20215;-68
2022/05/15 03:50:45;;;;;;;2.53;0.90;;;;;;;;;;20773468;28;20570;-68
2022/05/15 04:00:47;;;;;;;1.73;0.93;;;;;;;;;;20804501;28;20226;-68
2022/05/15 04:10:49;;;;;;;1.43;0.97;;;;;;;;;;20788150;28;20900;-68
2022/05/15 04:20:51;;;;;;;1.60;0.90;;;;;;;;;;20771791;28;20218;-68
2022/05/15 04:30:53;;;;;;;3.47;1.10;;;;;;;;;;20817691;28;20245;-68
2022/05/15 04:40:55;;;;;;;3.40;1.23;;;;;;;;;;20817128;28;20249;-68
2022/05/15 04:50:57;;;;;;;1.87;0.90;;;;;;;;;;20816041;28;20349;-68
2022/05/15 05:00:58;;;;;;;2.37;1.07;;;;;;;;;;20767507;28;20280;-68
2022/05/15 05:11:01;;;;;;;1.43;0.80;;;;;;;;;;20847887;28;20226;-68
2022/05/15 05:21:03;;;;;;;1.00;0.80;;;18.60;99.90;;;;;;20863966;28;20383;-68
2022/05/15 05:31:05;;;;;;;2.03;1.00;;;;;;;;;;20744341;28;20214;-69
2022/05/15 05:41:07;;;;;;;1.73;0.97;;;;;;;;;;20764155;28;20773;-69
2022/05/15 05:51:09;;;;;;;1.13;0.67;;;;;;;;;;20811627;28;20565;-69
2022/05/15 06:01:14;;;;;;;3.80;1.03;;;;;;;;;;20777354;28;20297;-69
2022/05/15 06:11:16;;;;;;;4.07;1.37;;;;;;;;;;20810178;28;20283;-69
2022/05/15 06:21:17;;;;;;;2.27;0.80;;;;;;;;;;20760423;28;20227;-69
2022/05/15 06:31:20;;;;;;;1.50;0.83;;;;;;;;;;20792335;28;20760;-69
2022/05/15 06:41:22;;;;;;;4.67;1.27;;;;;;;;;;20823748;28;20668;-69
2022/05/15 06:51:24;;;;;;;1.33;0.97;;;;;;;;;;20757451;28;20228;-68
2022/05/15 07:01:26;;;;;;;5.13;1.40;;;;;;;;;;20756956;28;20268;-68
2022/05/15 07:11:28;;;;;;;1.53;1.00;;;;;;;;;;20758023;28;20220;-68
2022/05/15 07:21:31;;;;;;;4.03;1.60;;;;;;;;;;20824920;28;20230;-69
2022/05/15 07:31:32;;;;;;;11.07;5.77;;;;;;;;;;20862669;28;20294;-69
2022/05/15 07:41:34;;;;;;;3.50;2.30;;;;;;;;;;20776085;28;20306;-69
2022/05/15 07:51:44;;;;;;;8.63;5.37;;;;;;;;;;20880726;22;20232;-71
2022/05/15 08:01:47;;;;;;;3.17;1.60;;;;;;;;;;20951585;28;20279;-72
2022/05/15 08:11:49;;;;;;;2.57;1.50;;;;;;;;;;20919402;28;20210;-71
2022/05/15 08:32:11;;;;;;;4.37;1.90;;;;;;;;;;20950505;28;20294;-72
2022/05/15 08:42:40;;;;;;;2.13;1.30;;;;;;;;;;20906950;28;20699;-70
2022/05/15 08:52:58;;;;;;;3.63;1.30;;;;;;;;;;20973122;28;20230;-70
2022/05/15 09:03:09;;;;;;;1.95;0.80;;;;;;;;;;20963387;28;20281;-70
2022/05/15 09:13:27;;;;;;;1.48;0.80;;;23.70;89.60;;;;;;20963637;28;20243;-70
2022/05/15 09:23:38;;;;;;;3.22;1.08;;;;;;;;;;20930289;28;20225;-69
2022/05/15 09:33:47;;;;;;;1.67;0.70;;;;;;;;;;20945355;28;20209;-69
2022/05/15 09:43:53;;;;;;;2.25;0.60;;;24.50;91.40;;;;;;20936512;28;20231;-69
2022/05/15 09:53:57;;;;;;;0.80;0.52;;;;;;;;;;20954037;28;20225;-70
2022/05/15 10:04:00;;;;;;;2.67;0.80;;;;;;;;;;20945440;28;20221;-72
2022/05/15 10:14:41;;;;;;;0.95;0.40;;;;;;;;;;20966868;28;20699;-68
2022/05/15 10:25:46;;;;;;;1.88;0.80;;;25.70;86.40;;;;;;20971646;28;20241;-69
2022/05/15 10:36:06;;;;;;;0.60;0.43;;;;;;;;;;20908111;28;20234;-69
2022/05/15 10:46:27;;;;;;;1.65;0.52;;;;;;;;;;20940335;28;20215;-70
2022/05/15 11:07:13;;;;;;;0.88;0.55;;;;;;;;;;20951515;28;20265;-70
2022/05/15 11:17:22;;;;;;;1.30;0.60;;;;;;;;;;20898441;28;20285;-70
2022/05/15 11:27:43;;;;;;;1.75;0.40;;;;;;;;;;20954168;28;20227;-70
2022/05/15 11:37:53;;;;;;;1.30;0.57;;;;;;;;;;20938836;28;20224;-70
2022/05/15 11:48:01;;;;;;;0.65;0.40;;;;;;;;;;20933135;28;21119;-71
2022/05/15 11:58:10;;;;;;;0.98;0.43;;;;;;;;;;20921323;28;20212;-69
2022/05/15 12:08:19;;;;;;;1.17;0.40;;;;;;;;;;20943756;28;20227;-71
2022/05/15 12:18:32;;;;;;;0.60;0.30;;;27.70;68.90;;;;;;20923531;28;20587;-70
2022/05/15 12:28:52;;;;;;;1.23;0.47;;;;;;;;;;20880371;28;20215;-68
2022/05/15 12:38:55;;;;;;;0.55;0.40;;;28.20;76.60;;;;;;20925796;28;20236;-69
2022/05/15 12:48:58;;;;;;;1.65;0.70;;;28.10;72.60;;;;;;20952293;28;20235;-69
2022/05/15 12:59:21;;;;;;;1.08;0.50;;;28.50;77.00;;;;;;20946157;28;20774;-69
2022/05/15 13:09:25;;;;;;;1.75;0.60;;;;;;;;;;20915225;28;20703;-70
2022/05/15 13:19:31;;;;;;;1.67;0.40;;;28.40;70.90;;;;;;20963917;28;20719;-67
2022/05/15 13:29:35;;;;;;;0.73;0.40;;;;;;;;;;20868687;28;20205;-67
2022/05/15 13:49:58;;;;;;;0.82;0.50;;;;;;;;;;20895448;22;20286;-68
2022/05/15 14:00:05;;;;;;;0.73;0.40;;;28.90;73.70;;;;;;20867679;28;20585;-68
2022/05/15 14:10:21;;;;;;;1.33;0.50;;;29.10;77.00;;;;;;20892948;28;20456;-68
2022/05/15 14:20:43;;;;;;;1.98;0.60;;;;;;;;;;20863492;28;20217;-68
2022/05/15 14:30:47;;;;;;;3.00;0.75;;;;;;;;;;20880428;28;20225;-68
2022/05/15 14:40:49;;;;;;;0.60;0.40;;;;;;;;;;20879166;28;20293;-68
2022/05/15 14:50:52;;;;;;;0.70;0.50;;;29.60;77.40;;;;;;20864743;28;20229;-68
2022/05/15 15:00:56;;;;;;;0.60;0.40;;;;;;;;;;20871863;28;20601;-68
2022/05/15 15:11:08;;;;;;;0.60;0.40;;;;;;;;;;20870336;28;20233;-68
2022/05/15 15:21:10;;;;;;;0.52;0.40;;;;;;;;;;20883980;28;20294;-68
2022/05/15 15:31:14;;;;;;;1.42;0.60;;;;;;;;;;20865646;28;20768;-68
2022/05/15 15:41:16;;;;;;;0.98;0.38;;;29.80;68.00;;;;;;20863585;28;20247;-67
2022/05/15 15:51:21;;;;;;;1.95;0.60;;;;;;;;;;20869932;28;20270;-67
2022/05/15 16:01:27;;;;;;;0.50;0.30;;;29.60;74.50;;;;;;20906686;28;20877;-67
2022/05/15 16:11:32;;;;;;;1.50;0.57;;;;;;;;;;20870520;28;20225;-68
2022/05/15 16:21:42;;;;;;;0.52;0.43;;;;;;;;;;20870932;28;20279;-67
2022/05/15 16:31:45;;;;;;;0.73;0.57;;;;;;;;;;20919109;28;20671;-67
2022/05/15 16:41:47;;;;;;;2.42;0.63;;;;;;;;;;20901296;28;20765;-67
2022/05/15 16:51:49;;;;;;;1.65;0.80;;;;;;;;;;20900291;28;20221;-67
2022/05/15 17:01:51;;;;;;;0.40;0.30;;;;;;;;;;20916013;28;20233;-67
2022/05/15 17:11:53;;;;;;;1.00;0.38;;;;;;;;;;20880228;28;20586;-68
2022/05/15 17:21:56;;;;;;;1.08;0.40;;;;;;;;;;20897404;28;21025;-68
2022/05/15 17:42:18;;;;;;;1.20;0.60;;;;;;;;;;20900287;28;20228;-69
2022/05/15 17:52:20;;;;;;;2.05;0.40;;;;;;;;;;20863723;28;20220;-68
2022/05/15 18:02:25;;;;;;;1.13;0.50;;;;;;;;;;20880060;28;20265;-69
2022/05/15 18:12:29;;;;;;;1.45;0.40;;;;;;;;;;20869548;28;20209;-68
2022/05/15 18:22:30;;;;;;;2.95;0.55;;;;;;;;;;20881873;28;20637;-68
2022/05/15 18:32:32;;;;;;;2.67;0.50;;;;;;;;;;20875196;28;20273;-69
2022/05/15 18:42:35;;;;;;;2.05;0.50;;;;;;;;;;20874272;28;20231;-68
2022/05/15 19:02:59;;;;;;;0.70;0.32;;;;;;;;;;20880384;28;20722;-69
2022/05/15 19:13:29;;;;;;;2.08;0.70;;;;;;;;;;20866263;28;20215;-69
2022/05/15 19:23:31;;;;;;;1.50;0.52;;;;;;;;;;20883599;28;20272;-69
2022/05/15 19:33:33;;;;;;;3.55;0.50;;;;;;;;;;20851709;28;20266;-69
2022/05/15 19:43:36;;;;;;;0.75;0.40;;;;;;;;;;20862264;28;20230;-69
2022/05/15 19:53:39;;;;;;;0.43;0.40;;;;;;;;;;20895054;22;20233;-69
2022/05/15 20:03:41;;;;;;;2.42;0.60;;;;;;;;;;20850988;28;20307;-69
2022/05/15 20:13:43;;;;;;;1.73;0.90;;;26.10;80.50;;;;;;20861384;28;20220;-69
2022/05/15 20:23:45;;;;;;;1.63;0.90;;;;;;;;;;20786080;28;20216;-69
2022/05/15 20:33:48;;;;;;;1.35;0.90;;;;;;;;;;20760701;28;20271;-69
2022/05/15 20:43:50;;;;;;;1.40;0.70;;;;;;;;;;20794885;28;20283;-71
2022/05/15 20:53:52;;;;;;;1.90;0.70;;;;;;;;;;20866859;28;20264;-71
2022/05/15 21:03:55;;;;;;;1.92;0.63;;;;;;;;;;20868512;28;20233;-71
2022/05/15 21:13:58;;;;;;;5.55;0.60;;;;;;;;;;20856336;28;20297;-70
2022/05/15 21:23:59;;;;;;;1.98;0.57;;;;;;;;;;20856810;28;20228;-71
2022/05/15 21:34:01;;;;;;;1.45;0.60;;;;;;;;;;20846704;28;20211;-69
2022/05/15 21:44:03;;;;;;;1.65;0.88;;;;;;;;;;20846089;28;20274;-69
2022/05/15 21:54:05;;;;;;;1.38;0.75;;;;;;;;;;20859161;28;20225;-70
2022/05/15 22:04:07;;;;;;;1.88;0.63;;;;;;;;;;20859669;28;20221;-70
2022/05/15 22:14:09;;;;;;;1.77;1.05;;;;;;;;;;20861101;28;20297;-69
2022/05/15 22:24:15;;;;;;;2.50;0.70;;;;;;;;;;20844889;28;20224;-69
2022/05/15 22:34:17;;;;;;;4.00;0.70;;;24.10;89.30;;;;;;20844597;28;20235;-69
2022/05/15 22:44:20;;;;;;;2.30;1.25;;;;;;;;;;20859135;28;20220;-69
2022/05/15 22:54:22;;;;;;;1.23;0.52;;;;;;;;;;20874842;28;20281;-69
2022/05/15 23:07:28;;;;;;;0.70;0.65;;;;;;;;;;20857423;28;20223;-69
2022/05/15 23:14:46;;;;;;;0.88;0.50;;;;;;;;;;20871966;28;20263;-70
2022/05/15 23:24:48;;;;;;;1.17;0.70;;;;;;;;;;20857120;28;20273;-69
2022/05/15 23:34:50;;;;;;;3.97;0.90;;;23.20;95.60;;;;;;20872229;28;20225;-70
2022/05/15 23:44:53;;;;;;;2.75;1.05;;;;;;;;;;20871339;28;20241;-70
2022/05/15 23:54:57;;;;;;;2.90;0.60;;;;;;;;;;20855199;28;20255;-71
